KOGB/OGB METAR and TAF weather

Enter ICAO airport designator
Station Type Date Time Source
KOGB METAR 2020/09/18 20:53 UTC NOAA

KOGB 182053Z AUTO 03008KT 10SM SCT026 OVC036 23/20 A2990 RMK AO2 SLP122 60000 T02330200 53004


Station Type Date Time Source
KOGB Decoded METAR 2020/09/18 20:53 UTC NOAA

ORANGEBURG MUNICIPAL AIRPORT, SC, United States (KOGB) 33-28N 080-51W 59M
Sep 18, 2020 - 04:53 PM EDT / 2020.09.18 2053 UTC
Wind: from the NNE (030 degrees) at 9 MPH (8 KT):0
Visibility: 10 mile(s):0
Sky conditions: overcast
Temperature: 73.9 F (23.3 C)
Dew Point: 68.0 F (20.0 C)
Relative Humidity: 81%
Pressure (altimeter): 29.9 in. Hg (1012 hPa)
Pressure tendency: 0.01 inches (0.4 hPa) higher than three hours ago
ob: KOGB 182053Z AUTO 03008KT 10SM SCT026 OVC036 23/20 A2990 RMK AO2 SLP122 60000 T02330200 53004
cycle: 21

Station Type Date Time Source
KOGB TAF 2020/09/18 21:48 UTC NOAA

TAF KOGB 182046Z 1821/1918 02010G18KT P6SM BKN025 OVC035
FM182300 03008KT P6SM SCT035 BKN045
FM191500 05010G15KT P6SM BKN250

Example: see airport list